createdAt,value
2017-06-30T00:01:42.777Z,77.31
2017-06-30T00:04:08.612Z,77.92
2017-06-30T00:06:34.663Z,77.78
2017-06-30T00:09:00.573Z,77.89
2017-06-30T00:11:26.437Z,78.00
2017-06-30T00:13:52.350Z,78.42
2017-06-30T00:16:18.326Z,77.97
2017-06-30T00:18:44.153Z,78.16
2017-06-30T00:21:09.973Z,78.67
2017-06-30T00:23:35.969Z,78.25
2017-06-30T00:26:01.807Z,78.05
2017-06-30T00:28:27.625Z,78.83
2017-06-30T00:30:53.473Z,79.12
2017-06-30T00:33:19.494Z,78.87
2017-06-30T00:35:45.442Z,78.70
2017-06-30T00:38:11.243Z,78.65
2017-06-30T00:40:37.099Z,78.34
2017-06-30T00:43:02.986Z,78.06
2017-06-30T00:45:28.885Z,78.45
2017-06-30T00:47:54.731Z,78.13
2017-06-30T00:50:20.542Z,77.92
2017-06-30T00:52:46.399Z,77.67
2017-06-30T00:55:12.253Z,77.97
2017-06-30T00:57:38.184Z,78.09
2017-06-30T01:00:05.093Z,78.36
2017-06-30T01:02:30.964Z,78.61
2017-06-30T01:04:56.856Z,78.89
2017-06-30T01:07:22.700Z,78.92
2017-06-30T01:09:48.576Z,78.81
2017-06-30T01:12:14.429Z,78.87
2017-06-30T01:14:40.952Z,78.80
2017-06-30T01:17:06.801Z,79.08
2017-06-30T01:19:32.615Z,79.19
2017-06-30T01:21:58.439Z,79.32
2017-06-30T01:24:24.314Z,79.02
2017-06-30T01:26:50.137Z,79.32
2017-06-30T01:29:15.985Z,78.92
2017-06-30T01:31:42.025Z,78.86
2017-06-30T01:34:07.919Z,78.38
2017-06-30T01:36:33.760Z,78.73
2017-06-30T01:38:59.611Z,78.84
2017-06-30T01:41:25.467Z,78.98
2017-06-30T01:43:51.445Z,78.66
2017-06-30T01:46:17.305Z,78.48
2017-06-30T01:48:43.144Z,78.46
2017-06-30T01:51:09.074Z,78.91
2017-06-30T01:53:34.922Z,78.91
2017-06-30T01:56:00.792Z,79.62
2017-06-30T01:58:26.801Z,79.89
2017-06-30T02:00:52.632Z,80.16
2017-06-30T02:03:18.591Z,79.92
2017-06-30T02:05:44.459Z,80.22
2017-06-30T02:08:10.341Z,80.46
2017-06-30T02:10:36.218Z,80.11
2017-06-30T02:13:02.030Z,80.14
2017-06-30T02:15:27.976Z,79.47
2017-06-30T02:17:53.871Z,79.34
2017-06-30T02:20:19.707Z,79.26
2017-06-30T02:22:45.544Z,78.95
2017-06-30T02:25:11.457Z,78.58
2017-06-30T02:27:37.464Z,78.41
2017-06-30T02:30:03.425Z,78.38
2017-06-30T02:32:29.243Z,78.68
2017-06-30T02:34:55.071Z,78.67
2017-06-30T02:37:20.952Z,79.13
2017-06-30T02:39:46.867Z,78.92
2017-06-30T02:42:12.728Z,79.00
2017-06-30T02:44:38.580Z,79.01
2017-06-30T02:47:04.410Z,79.03
2017-06-30T02:49:30.228Z,79.06
2017-06-30T02:51:56.185Z,78.72
2017-06-30T02:54:22.059Z,78.32
2017-06-30T02:56:48.066Z,78.24
2017-06-30T02:59:13.947Z,78.35
2017-06-30T03:01:39.839Z,78.50
2017-06-30T03:04:05.662Z,78.55
2017-06-30T03:06:31.596Z,77.78
2017-06-30T03:08:57.541Z,78.32
2017-06-30T03:11:23.663Z,77.80
2017-06-30T03:13:49.587Z,77.66
2017-06-30T03:16:15.417Z,77.45
2017-06-30T03:18:41.267Z,77.40
2017-06-30T03:21:07.086Z,77.09
2017-06-30T03:23:32.916Z,77.43
2017-06-30T03:25:58.842Z,77.59
2017-06-30T03:28:25.713Z,77.50
2017-06-30T03:30:51.520Z,77.41
2017-06-30T03:33:17.328Z,77.07
2017-06-30T03:35:43.179Z,77.39
2017-06-30T03:38:08.972Z,77.21
2017-06-30T03:40:34.909Z,77.88
2017-06-30T03:43:00.799Z,78.06
2017-06-30T03:45:26.614Z,78.16
2017-06-30T03:47:52.446Z,79.35
2017-06-30T03:50:18.275Z,78.85
2017-06-30T03:52:44.102Z,79.03
2017-06-30T03:55:09.897Z,78.57
2017-06-30T03:57:35.811Z,78.58
2017-06-30T04:00:01.754Z,78.38
2017-06-30T04:02:27.625Z,78.22
2017-06-30T04:04:53.429Z,78.47
2017-06-30T04:07:19.272Z,78.14
2017-06-30T04:09:45.089Z,78.18
2017-06-30T04:12:10.893Z,78.21
2017-06-30T04:14:36.839Z,78.07
2017-06-30T04:17:02.677Z,77.54
2017-06-30T04:19:29.290Z,77.15
2017-06-30T04:21:55.125Z,77.06
2017-06-30T04:24:20.933Z,77.21
2017-06-30T04:26:46.796Z,76.77
2017-06-30T04:29:12.609Z,76.73
2017-06-30T04:31:38.489Z,76.71
2017-06-30T04:34:04.295Z,76.77
2017-06-30T04:36:30.113Z,76.22
2017-06-30T04:38:55.903Z,76.26
2017-06-30T04:41:21.754Z,76.46
2017-06-30T04:43:47.597Z,76.37
2017-06-30T04:46:13.579Z,76.13
2017-06-30T04:48:39.382Z,76.06
2017-06-30T04:51:05.222Z,75.67
2017-06-30T04:53:31.061Z,75.18
2017-06-30T04:55:56.918Z,75.44
2017-06-30T04:58:22.888Z,75.60
2017-06-30T05:00:48.923Z,75.00
2017-06-30T05:03:14.761Z,74.52
2017-06-30T05:05:40.576Z,74.92
2017-06-30T05:08:06.533Z,74.38
2017-06-30T05:10:32.402Z,74.35
2017-06-30T05:12:59.981Z,74.49
2017-06-30T05:15:25.793Z,74.72
2017-06-30T05:17:51.625Z,75.39
2017-06-30T05:20:17.493Z,74.72
2017-06-30T05:22:43.340Z,74.88
2017-06-30T05:25:09.140Z,75.01
2017-06-30T05:27:34.943Z,75.08
2017-06-30T05:30:00.770Z,74.10
2017-06-30T05:32:26.585Z,74.98
2017-06-30T05:34:52.409Z,74.85
2017-06-30T05:37:18.267Z,74.95
2017-06-30T05:39:44.810Z,74.09
2017-06-30T05:42:11.237Z,73.33
2017-06-30T05:44:38.693Z,72.60
2017-06-30T05:47:05.155Z,72.98
2017-06-30T05:49:30.993Z,72.15
2017-06-30T05:51:56.867Z,71.82
2017-06-30T05:54:22.675Z,71.80
2017-06-30T05:56:48.533Z,70.71
2017-06-30T05:59:14.498Z,70.35
2017-06-30T06:01:40.320Z,70.05
2017-06-30T06:04:06.196Z,69.78
2017-06-30T06:06:32.064Z,68.47
2017-06-30T06:08:57.891Z,68.11
2017-06-30T06:11:23.742Z,67.17
2017-06-30T06:13:49.653Z,66.92
2017-06-30T06:16:15.654Z,66.15
2017-06-30T06:18:41.571Z,65.98
2017-06-30T06:21:07.440Z,64.88
2017-06-30T06:23:33.235Z,62.47
2017-06-30T06:25:59.052Z,64.00
2017-06-30T06:28:24.886Z,64.23
2017-06-30T06:30:50.706Z,65.05
2017-06-30T06:33:16.686Z,63.78
2017-06-30T06:35:42.534Z,62.11
2017-06-30T06:38:08.377Z,60.97
2017-06-30T06:40:34.208Z,62.81
2017-06-30T06:43:00.034Z,61.26
2017-06-30T06:45:25.878Z,59.51
2017-06-30T06:47:51.699Z,59.03
2017-06-30T06:50:18.969Z,58.08
2017-06-30T06:52:44.935Z,56.77
2017-06-30T06:55:10.780Z,56.33
2017-06-30T06:57:36.794Z,55.74
2017-06-30T07:00:02.646Z,54.90
2017-06-30T07:02:28.554Z,54.50
2017-06-30T07:04:54.348Z,53.96
2017-06-30T07:07:20.227Z,53.58
2017-06-30T07:09:46.058Z,53.28
2017-06-30T07:12:11.860Z,53.51
2017-06-30T07:14:37.734Z,52.47
2017-06-30T07:17:03.748Z,51.83
2017-06-30T07:19:29.585Z,51.13
2017-06-30T07:21:56.339Z,50.54
2017-06-30T07:24:29.113Z,51.79
2017-06-30T07:26:55.049Z,52.39
2017-06-30T07:29:20.962Z,52.71
2017-06-30T07:31:46.771Z,53.73
2017-06-30T07:34:13.237Z,52.20
2017-06-30T07:36:39.758Z,51.26
2017-06-30T07:39:05.687Z,49.91
2017-06-30T07:41:31.495Z,48.60
2017-06-30T07:43:58.972Z,48.98
2017-06-30T07:46:24.848Z,49.08
2017-06-30T07:48:50.693Z,50.27
2017-06-30T07:51:16.561Z,50.52
2017-06-30T07:53:42.378Z,48.71
2017-06-30T07:56:08.249Z,48.98
2017-06-30T07:58:34.178Z,50.34
2017-06-30T08:01:00.001Z,48.53
2017-06-30T08:03:25.943Z,49.26
2017-06-30T08:05:52.593Z,51.39
2017-06-30T08:08:19.928Z,51.73
2017-06-30T08:10:45.809Z,50.99
2017-06-30T08:13:11.703Z,49.70
2017-06-30T08:15:37.560Z,50.32
2017-06-30T08:18:03.572Z,50.68
2017-06-30T08:20:29.574Z,49.29
2017-06-30T08:22:55.412Z,47.80
2017-06-30T08:25:21.746Z,47.69
2017-06-30T08:27:47.974Z,47.50
2017-06-30T08:30:14.245Z,46.93
2017-06-30T08:32:40.145Z,44.75
2017-06-30T08:35:06.080Z,45.57
2017-06-30T08:37:31.887Z,43.41
2017-06-30T08:39:57.698Z,45.11
2017-06-30T08:42:24.045Z,45.71
2017-06-30T08:44:49.941Z,46.26
2017-06-30T08:47:15.857Z,46.49
2017-06-30T08:49:41.685Z,45.52
2017-06-30T08:52:07.700Z,45.49
2017-06-30T08:54:33.518Z,45.87
2017-06-30T08:56:59.349Z,44.01
2017-06-30T08:59:25.305Z,44.23
2017-06-30T09:01:51.202Z,43.10
2017-06-30T09:04:17.234Z,43.54
2017-06-30T09:06:43.204Z,43.84
2017-06-30T09:09:09.057Z,42.83
2017-06-30T09:11:34.929Z,44.13
2017-06-30T09:14:00.865Z,45.13
2017-06-30T09:16:26.719Z,43.93
2017-06-30T09:18:52.529Z,43.38
2017-06-30T09:21:18.408Z,43.63
2017-06-30T09:23:44.287Z,43.41
2017-06-30T09:26:10.122Z,43.18
2017-06-30T09:28:35.936Z,42.74
2017-06-30T09:31:01.953Z,41.09
2017-06-30T09:33:27.812Z,41.28
2017-06-30T09:35:53.656Z,39.14
2017-06-30T09:38:19.509Z,38.47
2017-06-30T09:40:45.477Z,38.53
2017-06-30T09:43:11.310Z,38.90
2017-06-30T09:45:37.109Z,38.95
2017-06-30T09:48:02.969Z,38.51
2017-06-30T09:50:28.884Z,36.95
2017-06-30T09:52:54.702Z,37.43
2017-06-30T09:55:20.543Z,36.38
2017-06-30T09:57:46.456Z,36.94
2017-06-30T10:00:12.506Z,38.40
2017-06-30T10:02:38.476Z,37.50
2017-06-30T10:05:04.296Z,38.73
2017-06-30T10:07:30.343Z,39.10
2017-06-30T10:09:56.173Z,38.46
2017-06-30T10:12:22.036Z,36.68
2017-06-30T10:14:47.929Z,37.20
2017-06-30T10:17:13.743Z,36.61
2017-06-30T10:19:39.612Z,36.78
2017-06-30T10:22:06.279Z,36.98
2017-06-30T10:24:32.208Z,39.27
2017-06-30T10:26:58.094Z,39.14
2017-06-30T10:29:23.967Z,39.24
2017-06-30T10:31:49.921Z,38.75
2017-06-30T10:34:15.773Z,38.79
2017-06-30T10:36:41.710Z,39.01
2017-06-30T10:39:07.515Z,38.79
2017-06-30T10:41:33.408Z,39.19
2017-06-30T10:43:59.292Z,38.45
2017-06-30T10:46:25.124Z,38.20
2017-06-30T10:48:50.917Z,37.56
2017-06-30T10:51:16.872Z,37.95
2017-06-30T10:53:42.697Z,36.15
2017-06-30T10:56:08.545Z,35.02
2017-06-30T10:58:34.648Z,36.40
2017-06-30T11:01:00.485Z,37.00
2017-06-30T11:03:26.309Z,37.12
2017-06-30T11:05:53.248Z,37.68
2017-06-30T11:08:19.059Z,35.63
2017-06-30T11:10:44.981Z,35.85
2017-06-30T11:13:10.934Z,36.80
2017-06-30T11:15:36.841Z,36.00
2017-06-30T11:18:02.711Z,34.52
2017-06-30T11:20:28.526Z,35.41
2017-06-30T11:22:54.354Z,33.05
2017-06-30T11:25:20.224Z,33.01
2017-06-30T11:27:46.049Z,35.87
2017-06-30T11:30:11.865Z,36.11
2017-06-30T11:32:37.885Z,34.63
2017-06-30T11:35:03.897Z,33.84
2017-06-30T11:37:29.898Z,33.62
2017-06-30T11:39:55.850Z,34.39
2017-06-30T11:42:21.696Z,35.93
2017-06-30T11:44:47.515Z,36.23
2017-06-30T11:47:13.411Z,36.08
2017-06-30T11:49:39.422Z,35.37
2017-06-30T11:52:05.317Z,34.06
2017-06-30T11:54:31.252Z,34.04
2017-06-30T11:56:57.097Z,34.35
2017-06-30T11:59:23.113Z,34.82
2017-06-30T12:01:49.031Z,34.08
2017-06-30T12:04:14.876Z,34.94
2017-06-30T12:06:40.817Z,34.79
2017-06-30T12:09:06.682Z,35.20
2017-06-30T12:11:32.647Z,35.32
2017-06-30T12:13:58.540Z,35.64
2017-06-30T12:16:24.368Z,34.71
2017-06-30T12:18:50.284Z,34.59
2017-06-30T12:21:16.181Z,35.21
2017-06-30T12:23:42.029Z,35.41
2017-06-30T12:26:07.942Z,35.75
2017-06-30T12:28:33.852Z,36.72
2017-06-30T12:30:59.680Z,34.46
2017-06-30T12:33:25.510Z,32.59
2017-06-30T12:35:51.339Z,32.45
2017-06-30T12:38:17.202Z,33.91
2017-06-30T12:40:43.010Z,33.88
2017-06-30T12:43:08.853Z,32.64
2017-06-30T12:45:34.756Z,34.50
2017-06-30T12:48:00.670Z,32.66
2017-06-30T12:50:26.496Z,31.93
2017-06-30T12:52:52.351Z,31.28
2017-06-30T12:55:18.309Z,31.45
2017-06-30T12:57:44.118Z,31.19
2017-06-30T13:00:09.929Z,31.85
2017-06-30T13:02:35.817Z,31.29
2017-06-30T13:05:01.620Z,30.12
2017-06-30T13:07:27.440Z,30.96
2017-06-30T13:09:53.465Z,29.92
2017-06-30T13:12:19.283Z,29.00
2017-06-30T13:14:45.312Z,28.37
2017-06-30T13:17:11.169Z,29.33
2017-06-30T13:19:40.205Z,29.46
2017-06-30T13:22:06.058Z,28.83
2017-06-30T13:24:31.981Z,29.36
2017-06-30T13:26:57.848Z,30.52
2017-06-30T13:29:23.671Z,31.21
2017-06-30T13:31:49.512Z,30.84
2017-06-30T13:34:15.376Z,30.41
2017-06-30T13:36:41.315Z,30.52
2017-06-30T13:39:07.174Z,31.29
2017-06-30T13:41:33.279Z,30.84
2017-06-30T13:43:59.097Z,29.08
2017-06-30T13:46:25.000Z,29.68
2017-06-30T13:48:50.881Z,27.35
2017-06-30T13:51:16.751Z,28.84
2017-06-30T13:53:42.664Z,30.78
2017-06-30T13:56:08.498Z,29.57
2017-06-30T13:58:34.401Z,29.75
2017-06-30T14:01:00.289Z,28.41
2017-06-30T14:03:26.218Z,29.47
2017-06-30T14:05:52.121Z,28.15
2017-06-30T14:08:17.959Z,27.77
2017-06-30T14:10:43.800Z,27.53
2017-06-30T14:13:09.648Z,28.14
2017-06-30T14:15:35.642Z,28.01
2017-06-30T14:18:01.451Z,26.84
2017-06-30T14:20:27.321Z,27.28
2017-06-30T14:22:53.147Z,27.96
2017-06-30T14:25:18.974Z,27.78
2017-06-30T14:27:44.825Z,28.06
2017-06-30T14:30:10.647Z,27.53
2017-06-30T14:32:36.657Z,26.42
2017-06-30T14:35:02.553Z,26.85
2017-06-30T14:37:28.393Z,27.71
2017-06-30T14:39:54.264Z,28.04
2017-06-30T14:42:20.089Z,28.02
2017-06-30T14:44:45.922Z,26.81
2017-06-30T14:47:11.775Z,28.76
2017-06-30T14:49:37.591Z,29.21
2017-06-30T14:52:03.471Z,31.26
2017-06-30T14:54:29.324Z,29.35
2017-06-30T14:56:55.140Z,28.74
2017-06-30T14:59:21.048Z,28.17
2017-06-30T15:01:46.885Z,28.82
2017-06-30T15:04:12.857Z,27.40
2017-06-30T15:06:38.692Z,26.74
2017-06-30T15:09:04.492Z,27.48
2017-06-30T15:11:30.334Z,28.93
2017-06-30T15:13:56.194Z,30.17
2017-06-30T15:16:22.218Z,28.12
2017-06-30T15:18:48.113Z,28.33
2017-06-30T15:21:13.960Z,28.68
2017-06-30T15:23:39.799Z,28.45
2017-06-30T15:26:05.649Z,29.21
2017-06-30T15:28:31.469Z,30.60
2017-06-30T15:30:57.296Z,29.19
2017-06-30T15:33:23.138Z,28.60
2017-06-30T15:35:48.953Z,30.63
2017-06-30T15:38:14.867Z,29.81
2017-06-30T15:40:40.730Z,28.26
2017-06-30T15:43:06.594Z,28.78
2017-06-30T15:45:32.383Z,28.04
2017-06-30T15:47:58.269Z,28.17
2017-06-30T15:50:24.169Z,28.31
2017-06-30T15:52:49.992Z,28.59
2017-06-30T15:55:15.869Z,28.63
2017-06-30T15:57:41.710Z,29.68
2017-06-30T16:00:07.548Z,30.07
2017-06-30T16:02:33.484Z,29.74
2017-06-30T16:04:59.352Z,30.55
2017-06-30T16:07:25.298Z,29.64
2017-06-30T16:09:51.175Z,30.13
2017-06-30T16:12:17.049Z,31.30
2017-06-30T16:14:42.965Z,32.01
2017-06-30T16:17:08.801Z,32.47
2017-06-30T16:19:34.641Z,33.02
2017-06-30T16:22:00.483Z,33.68
2017-06-30T16:24:26.319Z,33.88
2017-06-30T16:26:52.387Z,34.17
2017-06-30T16:29:18.299Z,34.62
2017-06-30T16:31:44.235Z,35.40
2017-06-30T16:34:10.146Z,35.45
2017-06-30T16:36:36.001Z,35.81
2017-06-30T16:39:01.897Z,35.83
2017-06-30T16:41:27.844Z,36.38
2017-06-30T16:43:53.689Z,37.16
2017-06-30T16:46:19.637Z,37.13
2017-06-30T16:48:45.436Z,37.37
2017-06-30T16:51:18.188Z,36.92
2017-06-30T16:53:44.056Z,37.21
2017-06-30T16:56:09.969Z,37.55
2017-06-30T16:58:35.925Z,38.33
2017-06-30T17:01:01.744Z,38.01
2017-06-30T17:03:27.557Z,38.46
2017-06-30T17:05:53.514Z,38.87
2017-06-30T17:08:19.490Z,38.58
2017-06-30T17:10:45.356Z,39.38
2017-06-30T17:13:11.246Z,40.37
2017-06-30T17:15:37.083Z,40.68
2017-06-30T17:18:02.983Z,38.45
2017-06-30T17:20:28.871Z,38.65
2017-06-30T17:22:54.707Z,39.40
2017-06-30T17:25:20.581Z,39.70
2017-06-30T17:27:46.429Z,39.50
2017-06-30T17:30:12.350Z,40.13
2017-06-30T17:32:38.331Z,40.17
2017-06-30T17:35:04.144Z,39.68
2017-06-30T17:37:30.017Z,41.26
2017-06-30T17:39:55.951Z,43.35
2017-06-30T17:42:21.947Z,45.96
2017-06-30T17:44:47.875Z,45.95
2017-06-30T17:47:13.804Z,51.87
2017-06-30T17:49:39.683Z,52.51
2017-06-30T17:52:05.539Z,46.81
2017-06-30T17:54:31.433Z,48.07
2017-06-30T17:56:57.294Z,45.50
2017-06-30T17:59:23.281Z,45.93
2017-06-30T18:01:49.141Z,43.95
2017-06-30T18:04:14.960Z,44.21
2017-06-30T18:06:40.846Z,44.48
2017-06-30T18:09:06.708Z,45.42
2017-06-30T18:11:32.596Z,45.67
2017-06-30T18:13:58.512Z,46.20
2017-06-30T18:16:24.475Z,46.53
2017-06-30T18:18:50.373Z,47.12
2017-06-30T18:21:16.250Z,47.71
2017-06-30T18:23:42.127Z,47.87
2017-06-30T18:26:07.968Z,48.46
2017-06-30T18:28:33.828Z,49.20
2017-06-30T18:30:59.692Z,49.52
2017-06-30T18:33:25.493Z,50.29
2017-06-30T18:35:51.313Z,50.80
2017-06-30T18:38:17.240Z,51.08
2017-06-30T18:40:43.043Z,51.25
2017-06-30T18:43:08.917Z,51.41
2017-06-30T18:45:34.761Z,51.69
2017-06-30T18:48:00.661Z,52.38
2017-06-30T18:50:26.544Z,52.44
2017-06-30T18:52:52.580Z,52.67
2017-06-30T18:55:18.427Z,52.67
2017-06-30T18:57:44.373Z,52.85
2017-06-30T19:00:10.288Z,53.17
2017-06-30T19:02:36.219Z,53.77
2017-06-30T19:05:02.021Z,59.34
2017-06-30T19:07:27.866Z,60.10
2017-06-30T19:09:53.858Z,61.27
2017-06-30T19:12:19.724Z,60.56
2017-06-30T19:14:45.654Z,61.45
2017-06-30T19:17:11.470Z,63.67
2017-06-30T19:19:37.380Z,64.66
2017-06-30T19:22:03.378Z,64.75
2017-06-30T19:24:29.358Z,63.49
2017-06-30T19:26:55.206Z,62.31
2017-06-30T19:29:21.046Z,63.28
2017-06-30T19:31:47.088Z,63.48
2017-06-30T19:34:13.120Z,63.17
2017-06-30T19:36:38.929Z,62.83
2017-06-30T19:39:04.829Z,62.44
2017-06-30T19:41:30.647Z,63.18
2017-06-30T19:43:56.488Z,62.86
2017-06-30T19:46:22.369Z,62.35
2017-06-30T19:48:48.396Z,62.95
2017-06-30T19:51:14.208Z,64.24
2017-06-30T19:53:40.286Z,65.15
2017-06-30T19:56:06.181Z,65.00
2017-06-30T19:58:31.997Z,65.85
2017-06-30T20:00:58.390Z,65.56
2017-06-30T20:03:24.251Z,65.86
2017-06-30T20:05:50.179Z,65.79
2017-06-30T20:08:16.059Z,66.40
2017-06-30T20:10:41.924Z,65.08
2017-06-30T20:13:07.869Z,65.73
2017-06-30T20:15:33.715Z,66.80
2017-06-30T20:17:59.723Z,67.46
2017-06-30T20:20:25.604Z,66.92
2017-06-30T20:22:51.611Z,66.38
2017-06-30T20:25:17.492Z,65.87
2017-06-30T20:27:43.393Z,65.95
2017-06-30T20:30:09.493Z,65.81
2017-06-30T20:32:35.423Z,67.60
2017-06-30T20:35:01.455Z,66.99
2017-06-30T20:37:27.462Z,67.17
2017-06-30T20:39:53.409Z,67.84
2017-06-30T20:42:19.307Z,68.12
2017-06-30T20:44:45.335Z,68.06
2017-06-30T20:47:11.416Z,68.21
2017-06-30T20:49:37.366Z,66.88
2017-06-30T20:52:03.388Z,66.62
2017-06-30T20:54:29.348Z,63.90
2017-06-30T20:56:55.285Z,64.80
2017-06-30T20:59:21.237Z,63.95
2017-06-30T21:01:47.144Z,64.40
2017-06-30T21:04:13.097Z,64.59
2017-06-30T21:06:39.143Z,65.02
2017-06-30T21:09:05.160Z,64.77
2017-06-30T21:11:31.068Z,65.15
2017-06-30T21:13:57.041Z,65.04
2017-06-30T21:16:22.910Z,65.56
2017-06-30T21:18:48.835Z,65.52
2017-06-30T21:21:14.797Z,65.59
2017-06-30T21:23:40.782Z,65.82
2017-06-30T21:26:06.632Z,67.04
2017-06-30T21:28:32.531Z,68.30
2017-06-30T21:30:58.538Z,69.11
2017-06-30T21:33:24.520Z,69.97
2017-06-30T21:35:50.373Z,70.88
2017-06-30T21:38:16.431Z,71.38
2017-06-30T21:40:42.317Z,71.19
2017-06-30T21:43:08.229Z,71.95
2017-06-30T21:45:34.099Z,71.87
2017-06-30T21:47:59.988Z,72.04
2017-06-30T21:50:25.908Z,72.26
2017-06-30T21:52:51.867Z,72.53
2017-06-30T21:55:17.722Z,72.17
2017-06-30T21:57:43.758Z,72.34
2017-06-30T22:00:09.761Z,74.89
2017-06-30T22:02:35.615Z,74.16
2017-06-30T22:05:01.530Z,73.72
2017-06-30T22:07:27.484Z,73.27
2017-06-30T22:09:53.451Z,73.53
2017-06-30T22:12:19.390Z,74.15
2017-06-30T22:14:45.273Z,73.53
2017-06-30T22:17:11.181Z,73.43
2017-06-30T22:19:37.064Z,73.95
2017-06-30T22:22:02.932Z,74.01
2017-06-30T22:24:28.826Z,73.55
2017-06-30T22:26:54.814Z,73.67
2017-06-30T22:29:20.760Z,73.52
2017-06-30T22:31:46.616Z,73.64
2017-06-30T22:34:12.468Z,74.61
2017-06-30T22:36:38.438Z,74.47
2017-06-30T22:39:04.293Z,73.75
2017-06-30T22:41:30.119Z,73.85
2017-06-30T22:43:56.104Z,72.45
2017-06-30T22:46:21.984Z,73.25
2017-06-30T22:48:47.931Z,72.70
2017-06-30T22:51:13.789Z,72.81
2017-06-30T22:53:39.664Z,72.94
2017-06-30T22:56:05.580Z,71.38
2017-06-30T22:58:31.406Z,70.15
2017-06-30T23:00:57.327Z,72.07
2017-06-30T23:03:23.224Z,72.13
2017-06-30T23:05:49.140Z,71.52
2017-06-30T23:08:15.188Z,70.65
2017-06-30T23:10:41.037Z,71.74
2017-06-30T23:13:06.920Z,72.85
2017-06-30T23:15:32.812Z,73.62
2017-06-30T23:17:58.840Z,73.76
2017-06-30T23:20:24.779Z,72.78
2017-06-30T23:22:50.635Z,73.21
2017-06-30T23:25:16.529Z,71.95
2017-06-30T23:27:42.448Z,73.33
2017-06-30T23:30:08.303Z,72.13
2017-06-30T23:32:34.262Z,72.51
2017-06-30T23:35:00.131Z,72.09
2017-06-30T23:37:25.978Z,70.80
2017-06-30T23:39:52.104Z,71.21
2017-06-30T23:42:18.008Z,70.62
2017-06-30T23:44:44.827Z,70.78
2017-06-30T23:47:10.715Z,71.51
2017-06-30T23:49:36.687Z,70.57
2017-06-30T23:52:02.587Z,70.13
2017-06-30T23:54:28.475Z,69.37
2017-06-30T23:56:54.322Z,69.20
2017-06-30T23:59:20.239Z,69.17
